Aviation Digital Data Service (ADDS)

Output produced by METARs form (1046 UTC 19 January 2019)
found at http://www.aviationweather.gov/metar/data/
 
K33N 191035Z AUTO 00000KT 3SM BR OVC049 00/M00 A3020 RMK A01
KGED 191027Z AUTO 00000KT 4SM BR OVC050 00/M02 A3021 RMK AO2 I1000 T00001022
KILG 190951Z AUTO 00000KT 10SM OVC050 01/M03 A3021 RMK AO2 SLP231 T00111033
KILG 190859Z 1909/2006 33004KT P6SM BKN050 
     FM191300 05005KT P6SM OVC100 
     FM191900 08010KT 4SM -SN BR OVC015 
     FM192200 09008KT 4SM -SNRA OVC010 
     FM200300 07011KT 2SM +RA OVC008